Time;durP1;ratioP1;P1;durP2;ratioP2;P2;SDS_P1;SDS_P2;PMS_P1;PMS_P2;Temp;Humidity;BMP_temperature;BMP_pressure;BME280_temperature;BME280_humidity;BME280_pressure;Samples;Min_cycle;Max_cycle;Signal;HPM_P1;HPM_P2
2022/12/22 03:27:30;;;;;;;;;;;;;;;-2.64;80.81;97741.42;1776998;81;20117;-75
2022/12/22 03:29:57;;;;;;;;;;;;;;;-2.59;80.95;97739.79;1776774;81;20085;-75
2022/12/22 03:32:27;;;;;;;;;;;;;;;-2.50;81.08;97731.73;1771647;80;20129;-75
2022/12/22 03:34:53;;;;;;;;;;;;;;;-2.46;81.12;97734.84;1757327;81;20084;-75
2022/12/22 03:37:19;;;;;;;;;;;;;;;-2.40;81.11;97734.50;1776395;81;20507;-75
2022/12/22 03:39:45;;;;;;;;;;;;;;;-2.35;80.99;97725.92;1776749;81;20128;-75
2022/12/22 03:47:43;;;;;;;;;;;;;;;-2.23;81.26;97717.06;1759492;81;20343;-74
2022/12/22 03:50:09;;;;;;;;;;;;;;;-2.16;81.24;97719.34;1771758;80;20089;-75
2022/12/22 03:52:36;;;;;;;;;;;;;;;-2.13;81.14;97720.27;1776514;81;20082;-75
2022/12/22 03:55:04;;;;;;;;;;;;;;;-2.12;81.12;97706.42;1776128;81;20328;-75
2022/12/22 03:57:31;;;;;;;;;;;;;;;-2.06;81.13;97704.36;1776235;81;20143;-75
2022/12/22 03:59:57;;;;;;;;;;;;;;;-2.04;81.06;97703.09;1776466;81;20084;-75
2022/12/22 04:02:23;;;;;;;;;;;;;;;-2.03;81.05;97699.20;1776221;81;20097;-74
2022/12/22 04:04:49;;;;;;;;;;;;;;;-1.98;81.02;97697.98;1776243;81;20093;-74
2022/12/22 04:07:15;;;;;;;;;;;;;;;-2.00;80.88;97698.37;1776431;81;20120;-74
2022/12/22 04:12:53;;;;;;;;;;;;;;;-1.96;81.25;97696.72;1776242;81;20097;-75
2022/12/22 04:14:54;;;;;;;;;;;;;;;-1.90;80.96;97696.39;1758113;81;20093;-75
2022/12/22 04:17:21;;;;;;;;;;;;;;;-1.88;81.23;97691.20;1776340;81;20104;-75
2022/12/22 04:19:47;;;;;;;;;;;;;;;-1.82;81.49;97691.72;1776384;81;20123;-75
2022/12/22 04:22:14;;;;;;;;;;;;;;;-1.79;81.19;97696.53;1773684;81;20093;-75
2022/12/22 04:24:40;;;;;;;;;;;;;;;-1.77;80.99;97683.16;1776510;81;20167;-75
2022/12/22 04:27:06;;;;;;;;;;;;;;;-1.77;80.93;97696.56;1776106;81;20093;-75
2022/12/22 04:29:32;;;;;;;;;;;;;;;-1.76;80.95;97693.10;1776489;81;20089;-75
2022/12/22 04:32:01;;;;;;;;;;;;;;;-1.73;81.00;97694.02;1770415;81;20122;-75
2022/12/22 04:34:27;;;;;;;;;;;;;;;-1.70;81.00;97685.84;1776283;81;20085;-76
2022/12/22 04:36:54;;;;;;;;;;;;;;;-1.68;81.04;97685.42;1776427;81;20321;-75
2022/12/22 04:39:21;;;;;;;;;;;;;;;-1.67;80.96;97689.79;1776211;81;20349;-75
2022/12/22 04:41:47;;;;;;;;;;;;;;;-1.68;81.20;97690.20;1776244;81;20117;-76
2022/12/22 04:44:15;;;;;;;;;;;;;;;-1.64;81.11;97695.01;1776247;81;20299;-76
2022/12/22 04:46:43;;;;;;;;;;;;;;;-1.65;80.93;97694.16;1772205;81;20170;-76
2022/12/22 04:49:09;;;;;;;;;;;;;;;-1.63;81.17;97689.84;1760316;81;20089;-75
2022/12/22 04:51:35;;;;;;;;;;;;;;;-1.62;81.11;97690.28;1773929;81;20438;-75
2022/12/22 04:54:01;;;;;;;;;;;;;;;-1.61;81.20;97693.77;1776153;81;20140;-75
2022/12/22 04:56:28;;;;;;;;;;;;;;;-1.59;81.15;97689.45;1776402;81;20140;-75
2022/12/22 04:58:54;;;;;;;;;;;;;;;-1.53;81.23;97693.88;1776345;81;20097;-74
2022/12/22 05:01:20;;;;;;;;;;;;;;;-1.50;81.20;97692.17;1772307;81;20194;-75
2022/12/22 05:03:48;;;;;;;;;;;;;;;-1.46;81.10;97687.47;1769658;81;20097;-75
2022/12/22 05:06:16;;;;;;;;;;;;;;;-1.44;80.98;97688.80;1776257;81;20109;-75
2022/12/22 05:08:42;;;;;;;;;;;;;;;-1.42;80.82;97695.33;1776249;81;20081;-75
2022/12/22 05:11:08;;;;;;;;;;;;;;;-1.44;80.64;97694.00;1776187;81;20129;-75
2022/12/22 05:13:37;;;;;;;;;;;;;;;-1.43;80.99;97696.16;1776455;81;20089;-75
2022/12/22 05:16:15;;;;;;;;;;;;;;;-1.40;80.81;97693.19;1775555;81;20113;-75
2022/12/22 05:18:43;;;;;;;;;;;;;;;-1.40;80.62;97693.60;1776390;81;20093;-74
2022/12/22 05:21:15;;;;;;;;;;;;;;;-1.44;80.65;97688.80;1776291;81;20120;-74
2022/12/22 05:23:42;;;;;;;;;;;;;;;-1.42;80.90;97681.03;1752079;81;20108;-75
2022/12/22 05:26:09;;;;;;;;;;;;;;;-1.45;80.73;97675.36;1776391;81;20333;-74
2022/12/22 05:28:35;;;;;;;;;;;;;;;-1.46;80.76;97680.09;1776361;81;20116;-75
2022/12/22 05:31:07;;;;;;;;;;;;;;;-1.41;80.73;97680.16;1776169;81;20341;-75
2022/12/22 05:33:33;;;;;;;;;;;;;;;-1.43;80.65;97677.95;1775034;81;20107;-74
2022/12/22 05:35:59;;;;;;;;;;;;;;;-1.39;80.72;97676.73;1773758;81;20558;-75
2022/12/22 05:38:26;;;;;;;;;;;;;;;-1.35;80.80;97672.03;1739325;81;20124;-74
2022/12/22 05:40:52;;;;;;;;;;;;;;;-1.33;80.70;97651.25;1766967;81;20128;-75
2022/12/22 05:43:18;;;;;;;;;;;;;;;-1.32;80.56;97646.48;1770419;81;20089;-75
2022/12/22 05:45:45;;;;;;;;;;;;;;;-1.30;80.51;97647.81;1777168;80;20400;-74
2022/12/22 05:48:12;;;;;;;;;;;;;;;-1.34;80.54;97659.47;1756664;81;20103;-74
2022/12/22 05:50:40;;;;;;;;;;;;;;;-1.34;80.27;97667.68;1767460;81;20117;-74
2022/12/22 05:53:07;;;;;;;;;;;;;;;-1.39;80.40;97671.95;1776969;80;20357;-74
2022/12/22 05:55:34;;;;;;;;;;;;;;;-1.37;80.42;97668.52;1776644;80;20880;-75
2022/12/22 05:58:01;;;;;;;;;;;;;;;-1.35;80.51;97669.84;1777028;80;20089;-75
2022/12/22 06:00:31;;;;;;;;;;;;;;;-1.36;80.49;97674.16;1772781;81;20444;-74
2022/12/22 06:02:58;;;;;;;;;;;;;;;-1.36;80.45;97675.45;1761859;81;20160;-74
2022/12/22 06:05:24;;;;;;;;;;;;;;;-1.34;80.41;97681.98;1776887;81;20121;-74
2022/12/22 06:07:51;;;;;;;;;;;;;;;-1.34;80.32;97680.27;1777082;81;20199;-74
2022/12/22 06:10:17;;;;;;;;;;;;;;;-1.33;80.25;97684.61;1776916;81;20137;-75
2022/12/22 06:12:43;;;;;;;;;;;;;;;-1.31;80.42;97682.03;1776909;81;20128;-74
2022/12/22 06:15:12;;;;;;;;;;;;;;;-1.30;80.12;97683.77;1777079;81;20105;-74
2022/12/22 06:17:38;;;;;;;;;;;;;;;-1.29;80.26;97680.75;1776916;80;20085;-75
2022/12/22 06:20:06;;;;;;;;;;;;;;;-1.29;80.35;97693.31;1772156;81;20868;-74
2022/12/22 06:22:33;;;;;;;;;;;;;;;-1.27;80.29;97692.92;1770105;81;20120;-75
2022/12/22 06:24:59;;;;;;;;;;;;;;;-1.24;80.47;97685.59;1763288;81;20125;-74
2022/12/22 06:27:25;;;;;;;;;;;;;;;-1.23;80.37;97686.91;1770613;80;20119;-75
2022/12/22 06:29:52;;;;;;;;;;;;;;;-1.26;80.24;97689.45;1746388;82;20091;-75
2022/12/22 06:32:18;;;;;;;;;;;;;;;-1.25;80.39;97692.95;1773130;81;20317;-74
2022/12/22 06:34:44;;;;;;;;;;;;;;;-1.24;80.20;97699.88;1776152;80;20084;-71
2022/12/22 06:37:11;;;;;;;;;;;;;;;-1.27;80.30;97700.72;1767308;80;20386;-71
2022/12/22 06:39:37;;;;;;;;;;;;;;;-1.25;80.24;97694.25;1755230;81;20087;-72
2022/12/22 06:44:49;;;;;;;;;;;;;;;-1.20;80.24;97701.23;1764075;81;20145;-72
2022/12/22 06:47:16;;;;;;;;;;;;;;;-1.17;80.40;97704.74;1748934;81;20150;-72
2022/12/22 06:49:42;;;;;;;;;;;;;;;-1.11;80.32;97701.80;1766428;81;20113;-71
2022/12/22 06:52:09;;;;;;;;;;;;;;;-1.09;80.38;97694.87;1758041;81;20093;-71
2022/12/22 06:54:35;;;;;;;;;;;;;;;-1.12;80.02;97707.83;1763771;80;20397;-71
2022/12/22 06:57:01;;;;;;;;;;;;;;;-1.15;80.19;97710.82;1765677;80;20168;-71
2022/12/22 06:59:27;;;;;;;;;;;;;;;-1.18;80.09;97710.77;1772196;80;20093;-72
2022/12/22 07:01:54;;;;;;;;;;;;;;;-1.17;80.27;97716.00;1765200;81;20097;-72
2022/12/22 07:04:21;;;;;;;;;;;;;;;-1.15;80.25;97711.70;1761056;80;20091;-72
2022/12/22 07:06:47;;;;;;;;;;;;;;;-1.09;80.46;97714.37;1767535;81;20318;-72
2022/12/22 07:09:13;;;;;;;;;;;;;;;-1.12;79.95;97710.42;1770101;81;20124;-72
2022/12/22 07:11:40;;;;;;;;;;;;;;;-1.09;80.40;97714.79;1765315;81;20139;-71
2022/12/22 07:14:06;;;;;;;;;;;;;;;-1.08;80.02;97717.41;1751025;81;20341;-71
2022/12/22 07:16:33;;;;;;;;;;;;;;;-1.14;80.18;97718.65;1776914;80;20089;-71
2022/12/22 07:18:59;;;;;;;;;;;;;;;-1.08;80.37;97712.66;1776946;81;20109;-71
2022/12/22 07:21:25;;;;;;;;;;;;;;;-1.03;80.31;97707.50;1775994;81;20401;-72
2022/12/22 07:23:52;;;;;;;;;;;;;;;-1.04;80.20;97707.91;1770517;81;20162;-72
2022/12/22 07:26:18;;;;;;;;;;;;;;;-1.03;80.37;97710.98;1757374;81;20550;-72
2022/12/22 07:28:45;;;;;;;;;;;;;;;-1.00;80.12;97694.09;1770675;81;20345;-72
2022/12/22 07:31:13;;;;;;;;;;;;;;;-0.96;80.40;97683.29;1758948;80;20102;-72
2022/12/22 07:33:39;;;;;;;;;;;;;;;-0.97;80.26;97694.56;1766850;81;20968;-71
2022/12/22 07:36:10;;;;;;;;;;;;;;;-0.94;80.36;97681.19;1767098;81;20081;-72
2022/12/22 07:38:38;;;;;;;;;;;;;;;-0.91;80.25;97689.45;1765364;81;20333;-72
2022/12/22 07:43:55;;;;;;;;;;;;;;;-0.87;80.44;97682.55;1758141;81;20278;-72
2022/12/22 07:46:23;;;;;;;;;;;;;;;-0.85;80.18;97676.92;1727652;83;20089;-72
2022/12/22 07:51:39;;;;;;;;;;;;;;;-0.71;80.43;97670.13;1766446;81;20408;-72
2022/12/22 07:54:10;;;;;;;;;;;;;;;-0.64;80.13;97661.07;1763889;81;20157;-71
2022/12/22 07:56:37;;;;;;;;;;;;;;;-0.61;80.10;97671.53;1766638;81;20372;-71
2022/12/22 07:59:03;;;;;;;;;;;;;;;-0.55;80.06;97670.27;1768448;81;20085;-71
2022/12/22 08:01:29;;;;;;;;;;;;;;;-0.52;79.89;97662.92;1766610;81;20129;-72
2022/12/22 08:03:58;;;;;;;;;;;;;;;-0.53;79.87;97676.39;1767279;81;20113;-71
2022/12/22 08:06:24;;;;;;;;;;;;;;;-0.49;79.83;97673.38;1769226;81;20081;-71
2022/12/22 08:08:52;;;;;;;;;;;;;;;-0.46;79.76;97676.02;1768253;81;20152;-71
2022/12/22 08:11:21;;;;;;;;;;;;;;;-0.45;79.78;97673.85;1765389;81;20089;-71
2022/12/22 08:13:48;;;;;;;;;;;;;;;-0.40;79.77;97674.31;1762480;81;20172;-71
2022/12/22 08:16:15;;;;;;;;;;;;;;;-0.40;79.77;97676.92;1764683;81;20141;-71
2022/12/22 08:18:45;;;;;;;;;;;;;;;-0.33;79.77;97667.89;1764620;81;20166;-73
2022/12/22 08:21:11;;;;;;;;;;;;;;;-0.24;79.79;97668.38;1764491;81;20507;-74
2022/12/22 08:23:38;;;;;;;;;;;;;;;-0.18;79.59;97673.22;1765965;81;20089;-74
2022/12/22 08:26:23;;;;;;;;;;;;;;;-0.14;79.32;97671.50;1767978;81;20104;-72
2022/12/22 08:29:06;;;;;;;;;;;;;;;-0.03;79.58;97672.90;1766494;81;20135;-72
2022/12/22 08:31:32;;;;;;;;;;;;;;;0.07;79.70;97671.22;1766498;81;20097;-74
2022/12/22 08:34:01;;;;;;;;;;;;;;;0.15;79.53;97674.76;1768013;81;20132;-74
2022/12/22 08:36:29;;;;;;;;;;;;;;;0.21;78.64;97673.48;1769153;81;20085;-74
2022/12/22 08:38:56;;;;;;;;;;;;;;;0.25;78.98;97677.02;1768882;81;20097;-74
2022/12/22 08:44:09;;;;;;;;;;;;;;;0.39;79.12;97667.55;1769134;81;20085;-75
2022/12/22 08:46:37;;;;;;;;;;;;;;;0.46;79.02;97661.91;1718139;83;20393;-75
2022/12/22 08:49:03;;;;;;;;;;;;;;;0.55;78.98;97662.41;1724315;83;20089;-74
2022/12/22 08:51:29;;;;;;;;;;;;;;;0.67;78.74;97656.80;1769029;81;20369;-72
2022/12/22 08:53:56;;;;;;;;;;;;;;;0.65;78.32;97661.59;1767923;81;20163;-74
2022/12/22 08:56:22;;;;;;;;;;;;;;;0.65;77.94;97656.37;1765746;81;20112;-73
2022/12/22 08:58:48;;;;;;;;;;;;;;;0.68;78.25;97646.80;1769446;81;20357;-73
2022/12/22 09:01:19;;;;;;;;;;;;;;;0.81;78.50;97639.47;1768445;80;20092;-74
2022/12/22 09:03:52;;;;;;;;;;;;;;;0.91;77.85;97639.94;1768333;81;20159;-71
2022/12/22 09:06:20;;;;;;;;;;;;;;;0.99;77.87;97630.83;1768127;81;20116;-71
2022/12/22 09:08:46;;;;;;;;;;;;;;;1.04;77.55;97637.38;1770722;81;20116;-71
2022/12/22 09:11:13;;;;;;;;;;;;;;;1.15;77.61;97640.88;1768833;81;20129;-73
2022/12/22 09:13:40;;;;;;;;;;;;;;;1.22;77.85;97642.19;1767531;81;20123;-71
2022/12/22 09:16:08;;;;;;;;;;;;;;;1.30;77.42;97630.88;1766235;80;20152;-72
2022/12/22 09:18:36;;;;;;;;;;;;;;;1.33;77.24;97635.27;1767379;81;20169;-74
2022/12/22 09:21:03;;;;;;;;;;;;;;;1.38;76.89;97634.84;1768904;81;20341;-72
2022/12/22 09:23:31;;;;;;;;;;;;;;;1.40;76.70;97630.90;1768326;81;20154;-72
2022/12/22 09:25:57;;;;;;;;;;;;;;;1.47;77.18;97624.83;1769057;80;20109;-72
2022/12/22 09:28:23;;;;;;;;;;;;;;;1.50;75.31;97623.97;1769796;81;20345;-72
2022/12/22 09:30:51;;;;;;;;;;;;;;;1.50;75.80;97628.73;1769190;81;20180;-72
2022/12/22 09:33:17;;;;;;;;;;;;;;;1.56;75.89;97629.19;1769407;81;20145;-72
2022/12/22 09:35:44;;;;;;;;;;;;;;;1.63;75.90;97630.06;1768995;81;20313;-72
2022/12/22 09:38:11;;;;;;;;;;;;;;;1.58;74.81;97629.62;1768399;81;20180;-72
2022/12/22 09:40:37;;;;;;;;;;;;;;;1.58;75.30;97622.23;1740995;81;20097;-72
2022/12/22 09:43:04;;;;;;;;;;;;;;;1.60;75.35;97613.95;1767244;80;20180;-72
2022/12/22 09:45:32;;;;;;;;;;;;;;;1.67;75.38;97618.75;1765348;81;20149;-72
2022/12/22 09:48:00;;;;;;;;;;;;;;;1.72;75.33;97622.23;1767216;81;20097;-73
2022/12/22 09:50:30;;;;;;;;;;;;;;;1.80;75.35;97617.00;1770606;81;20100;-72
2022/12/22 09:53:02;;;;;;;;;;;;;;;1.81;75.16;97616.13;1770589;80;20374;-72
2022/12/22 09:55:46;;;;;;;;;;;;;;;1.84;75.17;97618.28;1769105;81;20136;-72
2022/12/22 09:58:25;;;;;;;;;;;;;;;1.91;75.18;97616.55;1767342;81;20137;-72
2022/12/22 10:01:06;;;;;;;;;;;;;;;1.94;74.90;97615.67;1768064;81;20135;-72
2022/12/22 10:03:41;;;;;;;;;;;;;;;1.95;74.69;97613.52;1753772;81;20123;-72
2022/12/22 10:06:27;;;;;;;;;;;;;;;1.99;74.88;97611.30;1769995;81;20085;-73
2022/12/22 10:08:53;;;;;;;;;;;;;;;2.02;74.52;97610.00;1768301;81;20127;-72
2022/12/22 10:11:19;;;;;;;;;;;;;;;2.07;74.65;97606.94;1775908;81;20109;-73
2022/12/22 10:13:46;;;;;;;;;;;;;;;2.16;74.71;97611.73;1776599;81;20369;-73
2022/12/22 10:16:24;;;;;;;;;;;;;;;2.19;74.07;97605.16;1774801;81;20116;-72
2022/12/22 10:19:00;;;;;;;;;;;;;;;2.17;74.12;97606.50;1776029;81;20120;-72
2022/12/22 10:21:27;;;;;;;;;;;;;;;2.09;73.38;97597.38;1776277;81;20100;-72
2022/12/22 10:23:53;;;;;;;;;;;;;;;2.09;74.15;97599.98;1774700;81;20129;-72
2022/12/22 10:26:24;;;;;;;;;;;;;;;2.10;73.96;97595.19;1765922;81;20142;-72
2022/12/22 10:28:54;;;;;;;;;;;;;;;2.16;74.20;97599.97;1773421;81;20136;-73
2022/12/22 10:31:23;;;;;;;;;;;;;;;2.16;73.94;97586.44;1776389;81;20152;-73
2022/12/22 10:33:52;;;;;;;;;;;;;;;2.18;74.27;97583.40;1775159;81;20145;-73
2022/12/22 10:36:30;;;;;;;;;;;;;;;2.18;73.84;97582.52;1773817;81;20082;-73
2022/12/22 10:39:10;;;;;;;;;;;;;;;2.16;73.86;97586.89;1759256;81;20156;-73
2022/12/22 10:41:43;;;;;;;;;;;;;;;2.16;74.15;97587.75;1772157;81;20117;-73
2022/12/22 10:44:19;;;;;;;;;;;;;;;2.21;73.66;97580.76;1770298;81;20088;-74
2022/12/22 10:46:58;;;;;;;;;;;;;;;2.23;73.63;97585.98;1766862;81;20134;-72
2022/12/22 10:49:40;;;;;;;;;;;;;;;2.26;73.71;97585.11;1770191;80;20120;-72
2022/12/22 10:52:19;;;;;;;;;;;;;;;2.33;73.83;97579.00;1744427;81;20089;-72
2022/12/22 10:54:46;;;;;;;;;;;;;;;2.36;73.58;97577.23;1771425;81;20128;-72
2022/12/22 10:57:16;;;;;;;;;;;;;;;2.26;73.12;97569.42;1767459;81;20132;-73
2022/12/22 10:59:51;;;;;;;;;;;;;;;2.37;73.47;97580.28;1769544;81;20128;-72
2022/12/22 11:02:27;;;;;;;;;;;;;;;2.41;72.95;97564.13;1767981;81;20243;-72
2022/12/22 11:05:02;;;;;;;;;;;;;;;2.49;73.58;97564.13;1768151;81;20136;-72
2022/12/22 11:07:37;;;;;;;;;;;;;;;2.99;73.83;97563.88;1768598;79;20132;-73
2022/12/22 11:10:19;;;;;;;;;;;;;;;3.04;72.23;97560.33;1765904;81;20375;-73
2022/12/22 11:13:18;;;;;;;;;;;;;;;3.78;72.85;97548.84;1769140;80;20124;-72
2022/12/22 11:15:57;;;;;;;;;;;;;;;4.78;71.81;97540.28;1766848;80;20194;-72
2022/12/22 11:18:36;;;;;;;;;;;;;;;5.76;71.77;97528.25;1766725;80;20100;-72
2022/12/22 11:21:11;;;;;;;;;;;;;;;6.58;68.17;97521.89;1767176;81;20093;-72
2022/12/22 11:23:41;;;;;;;;;;;;;;;7.24;65.43;97518.69;1725274;81;20101;-72
2022/12/22 11:26:14;;;;;;;;;;;;;;;7.66;62.95;97524.25;1767981;81;20089;-71
2022/12/22 11:29:13;;;;;;;;;;;;;;;7.63;60.94;97518.61;1769258;80;20148;-72
2022/12/22 11:31:49;;;;;;;;;;;;;;;8.37;62.47;97515.34;1770460;80;20345;-72
2022/12/22 11:34:54;;;;;;;;;;;;;;;9.08;63.26;97516.36;1769470;80;20132;-72
2022/12/22 11:37:37;;;;;;;;;;;;;;;9.84;58.80;97517.86;1768012;81;20147;-72
2022/12/22 11:40:23;;;;;;;;;;;;;;;10.25;58.92;97504.54;1767923;81;20092;-71
2022/12/22 11:43:19;;;;;;;;;;;;;;;10.27;54.05;97498.74;1767565;80;20116;-71
2022/12/22 11:45:55;;;;;;;;;;;;;;;10.30;53.11;97505.27;1767117;81;20123;-72
2022/12/22 11:48:44;;;;;;;;;;;;;;;9.19;52.74;97509.42;1766420;81;20160;-72
2022/12/22 11:51:23;;;;;;;;;;;;;;;8.80;53.48;97500.06;1771941;81;20148;-72
2022/12/22 11:54:11;;;;;;;;;;;;;;;7.97;54.69;97506.77;1769584;81;20116;-72
2022/12/22 11:56:40;;;;;;;;;;;;;;;7.31;56.51;97508.39;1769143;81;20124;-72
2022/12/22 11:59:19;;;;;;;;;;;;;;;6.90;57.11;97512.44;1770830;81;20370;-72
2022/12/22 12:02:12;;;;;;;;;;;;;;;6.69;56.53;97519.05;1767307;81;20127;-72
2022/12/22 12:04:58;;;;;;;;;;;;;;;6.15;57.49;97511.80;1769104;81;20076;-72
2022/12/22 12:07:40;;;;;;;;;;;;;;;5.81;59.04;97517.20;1770286;81;20140;-72
2022/12/22 12:10:27;;;;;;;;;;;;;;;5.57;59.54;97515.88;1767371;81;20089;-72
2022/12/22 12:13:03;;;;;;;;;;;;;;;5.34;59.99;97512.75;1768237;81;20123;-71
2022/12/22 12:15:36;;;;;;;;;;;;;;;5.00;60.57;97522.47;1769486;81;20109;-72
2022/12/22 12:18:06;;;;;;;;;;;;;;;4.74;60.98;97504.02;1769630;81;20085;-72
2022/12/22 12:20:42;;;;;;;;;;;;;;;4.48;61.50;97506.53;1768328;81;20084;-72
2022/12/22 12:23:34;;;;;;;;;;;;;;;4.30;62.13;97506.33;1698141;83;20097;-72
2022/12/22 12:26:06;;;;;;;;;;;;;;;4.12;62.32;97490.38;1714073;83;20113;-72
2022/12/22 12:28:54;;;;;;;;;;;;;;;3.93;62.79;97480.97;1730053;83;20097;-72
2022/12/22 12:31:23;;;;;;;;;;;;;;;3.82;62.93;97486.78;1731152;83;20147;-72
2022/12/22 12:33:55;;;;;;;;;;;;;;;3.63;63.34;97492.64;1731352;83;20144;-72
2022/12/22 12:36:37;;;;;;;;;;;;;;;3.56;63.81;97495.75;1731067;83;20203;-72
2022/12/22 12:39:19;;;;;;;;;;;;;;;3.52;64.17;97501.91;1730411;83;20133;-72
2022/12/22 12:41:52;;;;;;;;;;;;;;;3.39;64.36;97489.36;1730360;83;20182;-73
2022/12/22 12:44:22;;;;;;;;;;;;;;;3.31;64.71;97481.57;1695108;82;20105;-73
2022/12/22 12:46:58;;;;;;;;;;;;;;;3.30;65.17;97496.44;1735983;82;20173;-72
2022/12/22 12:49:37;;;;;;;;;;;;;;;3.29;65.09;97506.92;1739762;82;20121;-72
2022/12/22 12:52:07;;;;;;;;;;;;;;;3.26;65.13;97513.05;1737014;82;20156;-72
2022/12/22 12:54:41;;;;;;;;;;;;;;;3.24;65.39;97517.42;1738444;82;20160;-72
2022/12/22 12:57:26;;;;;;;;;;;;;;;3.24;65.75;97523.12;1736860;82;20104;-72
2022/12/22 12:59:57;;;;;;;;;;;;;;;3.22;65.76;97513.95;1739614;82;20131;-72
2022/12/22 13:02:38;;;;;;;;;;;;;;;3.27;65.96;97523.95;1736051;82;20329;-72
2022/12/22 13:05:11;;;;;;;;;;;;;;;3.28;65.92;97520.45;1739405;82;20143;-73
2022/12/22 13:08:07;;;;;;;;;;;;;;;3.30;66.01;97502.98;1739185;82;20089;-72
2022/12/22 13:10:39;;;;;;;;;;;;;;;3.30;66.14;97514.77;1740384;82;20089;-72
2022/12/22 13:13:09;;;;;;;;;;;;;;;3.34;66.48;97521.27;1739611;82;20168;-72
2022/12/22 13:15:38;;;;;;;;;;;;;;;3.39;66.48;97520.80;1738761;82;20131;-72
2022/12/22 13:18:20;;;;;;;;;;;;;;;3.45;66.31;97529.05;1740614;82;20188;-73
2022/12/22 13:20:53;;;;;;;;;;;;;;;3.48;66.36;97528.58;1724666;81;20128;-72
2022/12/22 13:23:19;;;;;;;;;;;;;;;3.42;66.24;97529.52;1738573;82;20120;-72
2022/12/22 13:26:01;;;;;;;;;;;;;;;3.41;66.39;97522.98;1730293;82;20128;-73
2022/12/22 13:28:26;;;;;;;;;;;;;;;3.37;66.35;97518.64;1737946;82;20123;-73
2022/12/22 13:30:58;;;;;;;;;;;;;;;3.29;66.32;97518.25;1719078;82;20127;-72
2022/12/22 13:33:28;;;;;;;;;;;;;;;3.20;66.55;97524.86;1758461;82;20253;-72
2022/12/22 13:35:56;;;;;;;;;;;;;;;3.15;66.67;97525.34;1759898;80;20087;-72
2022/12/22 13:38:35;;;;;;;;;;;;;;;3.10;66.82;97522.77;1748837;81;20158;-72
2022/12/22 13:41:05;;;;;;;;;;;;;;;3.05;66.90;97532.41;1750221;81;20376;-72
2022/12/22 13:43:32;;;;;;;;;;;;;;;3.00;67.02;97534.19;1742300;81;20113;-73
2022/12/22 13:46:01;;;;;;;;;;;;;;;2.96;67.17;97532.04;1748243;81;20152;-72
2022/12/22 13:48:31;;;;;;;;;;;;;;;2.96;67.21;97534.66;1747200;81;20161;-72
2022/12/22 13:51:03;;;;;;;;;;;;;;;2.95;67.32;97529.42;1724367;83;20141;-72
2022/12/22 13:53:35;;;;;;;;;;;;;;;2.94;67.41;97522.46;1765329;81;20397;-72
2022/12/22 13:56:01;;;;;;;;;;;;;;;2.96;67.51;97529.42;1754422;81;20734;-73
2022/12/22 13:58:30;;;;;;;;;;;;;;;3.02;67.93;97528.06;1762782;80;20420;-72
2022/12/22 14:01:01;;;;;;;;;;;;;;;3.10;67.41;97525.81;1766733;81;20096;-73
2022/12/22 14:03:28;;;;;;;;;;;;;;;3.07;67.35;97516.70;1766808;81;20310;-72
2022/12/22 14:05:54;;;;;;;;;;;;;;;3.06;67.28;97517.13;1770319;81;20325;-72
2022/12/22 14:08:22;;;;;;;;;;;;;;;3.05;67.21;97514.08;1770345;80;20132;-73
2022/12/22 14:10:49;;;;;;;;;;;;;;;3.07;67.33;97514.08;1771341;81;20085;-74
2022/12/22 14:13:18;;;;;;;;;;;;;;;3.08;67.33;97512.77;1770482;81;20128;-74
2022/12/22 14:15:45;;;;;;;;;;;;;;;3.10;67.47;97507.06;1769912;81;20389;-73
2022/12/22 14:18:17;;;;;;;;;;;;;;;3.16;67.56;97514.86;1771402;81;20164;-77
2022/12/22 14:20:45;;;;;;;;;;;;;;;3.21;67.41;97517.89;1771365;81;20121;-78
2022/12/22 14:23:26;;;;;;;;;;;;;;;3.23;67.39;97531.40;1770488;81;20148;-78
2022/12/22 14:26:01;;;;;;;;;;;;;;;3.23;67.14;97530.09;1738639;81;20125;-78
2022/12/22 14:28:41;;;;;;;;;;;;;;;3.24;67.03;97533.13;1766444;81;20143;-79
2022/12/22 14:31:03;;;;;;;;;;;;;;;3.21;66.88;97533.17;1747963;81;20097;-76
2022/12/22 14:33:32;;;;;;;;;;;;;;;3.20;67.10;97542.34;1767858;81;20329;-78
2022/12/22 14:36:22;;;;;;;;;;;;;;;3.21;67.22;97542.77;1770207;81;20512;-78
2022/12/22 14:38:54;;;;;;;;;;;;;;;3.19;67.18;97544.55;1771058;81;20231;-78
2022/12/22 14:41:42;;;;;;;;;;;;;;;3.20;67.52;97540.58;1772894;81;20108;-77
2022/12/22 14:44:28;;;;;;;;;;;;;;;3.23;67.51;97541.88;1770198;80;20132;-77
2022/12/22 14:47:19;;;;;;;;;;;;;;;3.22;67.19;97537.53;1770439;81;20097;-78
2022/12/22 14:49:49;;;;;;;;;;;;;;;3.19;67.42;97542.77;1771760;81;20253;-77
2022/12/22 14:52:21;;;;;;;;;;;;;;;3.15;67.38;97543.24;1771665;81;20155;-76
2022/12/22 14:54:49;;;;;;;;;;;;;;;3.14;67.62;97544.56;1772123;80;20172;-76
2022/12/22 14:57:19;;;;;;;;;;;;;;;3.09;67.68;97543.72;1772277;81;20156;-76
2022/12/22 15:00:06;;;;;;;;;;;;;;;3.08;67.87;97548.53;1771704;81;20140;-77
2022/12/22 15:02:38;;;;;;;;;;;;;;;3.08;68.03;97541.98;1770457;81;20077;-76
2022/12/22 15:05:14;;;;;;;;;;;;;;;3.08;68.13;97547.23;1770050;81;20117;-76
2022/12/22 15:07:44;;;;;;;;;;;;;;;3.09;68.33;97558.12;1768910;81;20245;-76
2022/12/22 15:10:10;;;;;;;;;;;;;;;3.10;68.28;97556.81;1770708;81;20127;-76
2022/12/22 15:12:36;;;;;;;;;;;;;;;3.11;68.34;97558.55;1769543;81;20125;-76
2022/12/22 15:15:03;;;;;;;;;;;;;;;3.13;68.51;97567.70;1769499;81;20112;-76
2022/12/22 15:17:29;;;;;;;;;;;;;;;3.12;68.46;97567.28;1772276;81;20101;-77
2022/12/22 15:19:57;;;;;;;;;;;;;;;3.10;68.67;97570.33;1772497;80;20168;-77
2022/12/22 15:22:24;;;;;;;;;;;;;;;3.13;68.69;97567.70;1770145;81;20144;-77
2022/12/22 15:24:50;;;;;;;;;;;;;;;3.12;68.60;97569.90;1770087;81;20250;-77
2022/12/22 15:27:16;;;;;;;;;;;;;;;3.10;68.50;97573.83;1772225;81;20120;-77
2022/12/22 15:29:43;;;;;;;;;;;;;;;3.09;68.68;97560.31;1770105;81;20088;-77
2022/12/22 15:32:13;;;;;;;;;;;;;;;3.10;68.64;97568.59;1769914;81;20168;-77
2022/12/22 15:34:39;;;;;;;;;;;;;;;3.09;68.78;97573.83;1771229;81;20291;-77
2022/12/22 15:37:05;;;;;;;;;;;;;;;3.09;68.79;97572.52;1770920;81;20144;-76
2022/12/22 15:39:32;;;;;;;;;;;;;;;3.08;68.76;97568.17;1770741;81;20112;-76
2022/12/22 15:41:58;;;;;;;;;;;;;;;3.08;68.57;97570.36;1771463;81;20085;-76
2022/12/22 15:44:24;;;;;;;;;;;;;;;3.08;68.72;97569.48;1770658;81;20084;-76
2022/12/22 15:46:55;;;;;;;;;;;;;;;3.08;68.79;97571.67;1769584;81;20148;-76
2022/12/22 15:49:24;;;;;;;;;;;;;;;3.09;68.91;97575.14;1770114;81;20393;-76
2022/12/22 15:51:54;;;;;;;;;;;;;;;3.06;68.75;97573.41;1769859;81;20136;-77
2022/12/22 15:54:21;;;;;;;;;;;;;;;3.02;68.62;97578.23;1770862;81;20380;-76
2022/12/22 15:56:49;;;;;;;;;;;;;;;3.01;68.75;97577.81;1771065;81;20100;-76
2022/12/22 15:59:18;;;;;;;;;;;;;;;3.01;68.94;97579.12;1770954;81;20353;-76
2022/12/22 16:01:44;;;;;;;;;;;;;;;3.01;68.91;97585.66;1770216;81;20329;-76
2022/12/22 16:04:10;;;;;;;;;;;;;;;3.00;68.78;97586.55;1770359;81;20116;-76
2022/12/22 16:06:37;;;;;;;;;;;;;;;2.96;68.99;97587.44;1771299;81;20125;-76
2022/12/22 16:09:06;;;;;;;;;;;;;;;2.93;69.57;97588.33;1770016;81;20120;-76
2022/12/22 16:11:32;;;;;;;;;;;;;;;2.90;69.67;97583.09;1770229;81;20097;-75
2022/12/22 16:14:00;;;;;;;;;;;;;;;2.86;69.78;97578.78;1770354;81;20131;-76
2022/12/22 16:16:26;;;;;;;;;;;;;;;2.81;70.16;97585.77;1771727;80;20144;-76
2022/12/22 16:18:54;;;;;;;;;;;;;;;2.77;70.44;97577.95;1771951;81;20152;-75
2022/12/22 16:21:23;;;;;;;;;;;;;;;2.74;70.54;97594.95;1772036;81;20113;-76
2022/12/22 16:23:50;;;;;;;;;;;;;;;2.72;71.27;97591.49;1771670;81;20156;-76
2022/12/22 16:26:20;;;;;;;;;;;;;;;2.72;71.11;97593.23;1771290;81;20346;-76
2022/12/22 16:28:46;;;;;;;;;;;;;;;2.71;71.31;97592.37;1771713;81;20369;-76
2022/12/22 16:31:20;;;;;;;;;;;;;;;2.70;71.95;97596.30;1771012;81;20114;-75
2022/12/22 16:33:47;;;;;;;;;;;;;;;2.67;72.36;97594.57;1771713;81;20097;-75
2022/12/22 16:36:14;;;;;;;;;;;;;;;2.64;72.03;97596.77;1772052;81;20097;-75
2022/12/22 16:38:40;;;;;;;;;;;;;;;2.63;72.12;97590.22;1761872;79;20118;-76
2022/12/22 16:41:24;;;;;;;;;;;;;;;2.60;72.13;97584.99;1760341;79;20152;-76
2022/12/22 16:43:52;;;;;;;;;;;;;;;2.57;73.67;97594.18;1756821;81;20099;-75
2022/12/22 16:46:20;;;;;;;;;;;;;;;2.51;73.81;97600.30;1758619;79;20096;-75
2022/12/22 16:48:49;;;;;;;;;;;;;;;2.48;74.21;97600.30;1759346;79;20151;-76
2022/12/22 16:51:22;;;;;;;;;;;;;;;2.45;74.25;97605.09;1729387;83;20171;-76
2022/12/22 16:53:49;;;;;;;;;;;;;;;2.40;75.52;97612.09;1733168;82;20117;-76
2022/12/22 16:56:19;;;;;;;;;;;;;;;2.38;74.74;97612.55;1740723;81;20502;-78